sensor_id;sensor_type;location;lat;lon;timestamp;temperature;humidity
18160;DHT22;9205;52.032;4.314;2023-08-31T00:02:04;13.40;99.90
18160;DHT22;9205;52.032;4.314;2023-08-31T00:04:32;13.50;99.90
18160;DHT22;9205;52.032;4.314;2023-08-31T00:06:59;13.50;99.90
18160;DHT22;9205;52.032;4.314;2023-08-31T00:09:28;13.50;99.90
18160;DHT22;9205;52.032;4.314;2023-08-31T00:11:56;13.40;99.90
18160;DHT22;9205;52.032;4.314;2023-08-31T00:14:23;13.50;99.90
18160;DHT22;9205;52.032;4.314;2023-08-31T00:16:52;13.50;99.90
18160;DHT22;9205;52.032;4.314;2023-08-31T00:19:19;13.40;99.90
18160;DHT22;9205;52.032;4.314;2023-08-31T00:21:46;13.40;99.90
18160;DHT22;9205;52.032;4.314;2023-08-31T00:24:14;13.40;99.90
18160;DHT22;9205;52.032;4.314;2023-08-31T00:26:42;13.50;99.90
18160;DHT22;9205;52.032;4.314;2023-08-31T00:29:10;13.50;99.90
18160;DHT22;9205;52.032;4.314;2023-08-31T00:31:42;13.40;99.90
18160;DHT22;9205;52.032;4.314;2023-08-31T00:34:10;13.30;99.90
18160;DHT22;9205;52.032;4.314;2023-08-31T00:36:40;13.20;99.90
18160;DHT22;9205;52.032;4.314;2023-08-31T00:39:07;13.20;99.90
18160;DHT22;9205;52.032;4.314;2023-08-31T00:41:38;13.00;99.90
18160;DHT22;9205;52.032;4.314;2023-08-31T00:44:07;13.10;99.90
18160;DHT22;9205;52.032;4.314;2023-08-31T00:46:34;13.20;99.90
18160;DHT22;9205;52.032;4.314;2023-08-31T00:49:02;13.00;99.90
18160;DHT22;9205;52.032;4.314;2023-08-31T00:51:30;13.10;99.90
18160;DHT22;9205;52.032;4.314;2023-08-31T00:53:58;13.00;99.90
18160;DHT22;9205;52.032;4.314;2023-08-31T00:56:26;12.90;99.90
18160;DHT22;9205;52.032;4.314;2023-08-31T00:58:54;12.90;99.90
18160;DHT22;9205;52.032;4.314;2023-08-31T01:01:27;13.00;99.90
18160;DHT22;9205;52.032;4.314;2023-08-31T01:04:09;13.00;99.90
18160;DHT22;9205;52.032;4.314;2023-08-31T01:06:58;12.90;99.90
18160;DHT22;9205;52.032;4.314;2023-08-31T01:09:36;12.90;99.90
18160;DHT22;9205;52.032;4.314;2023-08-31T01:12:10;13.00;99.90
18160;DHT22;9205;52.032;4.314;2023-08-31T01:14:43;13.00;99.90
18160;DHT22;9205;52.032;4.314;2023-08-31T01:17:16;13.10;99.90
18160;DHT22;9205;52.032;4.314;2023-08-31T01:19:49;13.10;99.90
18160;DHT22;9205;52.032;4.314;2023-08-31T01:22:27;13.00;99.90
18160;DHT22;9205;52.032;4.314;2023-08-31T01:24:59;13.00;99.90
18160;DHT22;9205;52.032;4.314;2023-08-31T01:27:30;13.00;99.90
18160;DHT22;9205;52.032;4.314;2023-08-31T01:29:58;13.20;99.90
18160;DHT22;9205;52.032;4.314;2023-08-31T01:32:25;13.10;99.90
18160;DHT22;9205;52.032;4.314;2023-08-31T01:34:53;13.30;99.90
18160;DHT22;9205;52.032;4.314;2023-08-31T01:37:29;13.30;99.90
18160;DHT22;9205;52.032;4.314;2023-08-31T01:40:07;13.30;99.90
18160;DHT22;9205;52.032;4.314;2023-08-31T01:42:40;13.20;99.90
18160;DHT22;9205;52.032;4.314;2023-08-31T01:45:10;13.40;99.90
18160;DHT22;9205;52.032;4.314;2023-08-31T01:47:42;13.30;99.90
18160;DHT22;9205;52.032;4.314;2023-08-31T01:50:11;13.30;99.90
18160;DHT22;9205;52.032;4.314;2023-08-31T01:52:39;13.20;99.90
18160;DHT22;9205;52.032;4.314;2023-08-31T01:55:08;13.20;99.90
18160;DHT22;9205;52.032;4.314;2023-08-31T01:57:35;13.30;99.90
18160;DHT22;9205;52.032;4.314;2023-08-31T02:00:09;13.20;99.90
18160;DHT22;9205;52.032;4.314;2023-08-31T02:02:40;13.20;99.90
18160;DHT22;9205;52.032;4.314;2023-08-31T02:05:08;13.20;99.90
18160;DHT22;9205;52.032;4.314;2023-08-31T02:07:36;13.20;99.90
18160;DHT22;9205;52.032;4.314;2023-08-31T02:10:04;13.20;99.90
18160;DHT22;9205;52.032;4.314;2023-08-31T02:12:33;13.10;99.90
18160;DHT22;9205;52.032;4.314;2023-08-31T02:15:02;13.00;99.90
18160;DHT22;9205;52.032;4.314;2023-08-31T02:17:31;13.20;99.90
18160;DHT22;9205;52.032;4.314;2023-08-31T02:19:58;13.00;99.90
18160;DHT22;9205;52.032;4.314;2023-08-31T02:22:26;13.20;99.90
18160;DHT22;9205;52.032;4.314;2023-08-31T02:24:53;13.00;99.90
18160;DHT22;9205;52.032;4.314;2023-08-31T02:27:20;13.10;99.90
18160;DHT22;9205;52.032;4.314;2023-08-31T02:29:49;13.10;99.90
18160;DHT22;9205;52.032;4.314;2023-08-31T02:32:17;13.30;99.90
18160;DHT22;9205;52.032;4.314;2023-08-31T02:34:44;13.30;99.90
18160;DHT22;9205;52.032;4.314;2023-08-31T02:37:11;13.40;99.90
18160;DHT22;9205;52.032;4.314;2023-08-31T02:39:38;13.30;99.90
18160;DHT22;9205;52.032;4.314;2023-08-31T02:42:05;13.30;99.90
18160;DHT22;9205;52.032;4.314;2023-08-31T02:44:33;13.40;99.90
18160;DHT22;9205;52.032;4.314;2023-08-31T02:47:02;13.50;99.90
18160;DHT22;9205;52.032;4.314;2023-08-31T02:49:29;13.50;99.90
18160;DHT22;9205;52.032;4.314;2023-08-31T02:51:56;13.60;99.90
18160;DHT22;9205;52.032;4.314;2023-08-31T02:54:23;13.60;99.90
18160;DHT22;9205;52.032;4.314;2023-08-31T02:56:50;13.60;99.90
18160;DHT22;9205;52.032;4.314;2023-08-31T02:59:18;13.60;99.90
18160;DHT22;9205;52.032;4.314;2023-08-31T03:01:45;13.60;99.90
18160;DHT22;9205;52.032;4.314;2023-08-31T03:04:14;13.70;99.90
18160;DHT22;9205;52.032;4.314;2023-08-31T03:06:43;13.60;99.90
18160;DHT22;9205;52.032;4.314;2023-08-31T03:09:11;13.60;99.90
18160;DHT22;9205;52.032;4.314;2023-08-31T03:11:39;13.70;99.90
18160;DHT22;9205;52.032;4.314;2023-08-31T03:14:06;13.60;99.90
18160;DHT22;9205;52.032;4.314;2023-08-31T03:16:35;13.80;99.90
18160;DHT22;9205;52.032;4.314;2023-08-31T03:19:03;13.80;99.90
18160;DHT22;9205;52.032;4.314;2023-08-31T03:21:33;13.70;99.90
18160;DHT22;9205;52.032;4.314;2023-08-31T03:24:00;13.70;99.90
18160;DHT22;9205;52.032;4.314;2023-08-31T03:26:27;13.80;99.90
18160;DHT22;9205;52.032;4.314;2023-08-31T03:28:55;13.80;99.90
18160;DHT22;9205;52.032;4.314;2023-08-31T03:31:22;13.80;99.90
18160;DHT22;9205;52.032;4.314;2023-08-31T03:33:50;13.90;99.90
18160;DHT22;9205;52.032;4.314;2023-08-31T03:36:17;13.90;99.90
18160;DHT22;9205;52.032;4.314;2023-08-31T03:38:45;14.00;99.90
18160;DHT22;9205;52.032;4.314;2023-08-31T03:41:13;13.90;99.90
18160;DHT22;9205;52.032;4.314;2023-08-31T03:43:40;14.00;99.90
18160;DHT22;9205;52.032;4.314;2023-08-31T03:46:08;13.90;99.90
18160;DHT22;9205;52.032;4.314;2023-08-31T03:48:35;14.00;99.90
18160;DHT22;9205;52.032;4.314;2023-08-31T03:51:02;14.10;98.70
18160;DHT22;9205;52.032;4.314;2023-08-31T03:53:30;14.10;60.90
18160;DHT22;9205;52.032;4.314;2023-08-31T03:55:59;14.20;44.00
18160;DHT22;9205;52.032;4.314;2023-08-31T03:58:27;14.20;11.10
18160;DHT22;9205;52.032;4.314;2023-08-31T04:00:54;14.30;1.00
18160;DHT22;9205;52.032;4.314;2023-08-31T04:03:22;14.30;1.00
18160;DHT22;9205;52.032;4.314;2023-08-31T04:05:54;14.30;1.00
18160;DHT22;9205;52.032;4.314;2023-08-31T04:08:21;14.30;1.00
18160;DHT22;9205;52.032;4.314;2023-08-31T04:10:49;14.30;1.00
18160;DHT22;9205;52.032;4.314;2023-08-31T04:13:18;14.20;1.00
18160;DHT22;9205;52.032;4.314;2023-08-31T04:15:46;14.30;1.00
18160;DHT22;9205;52.032;4.314;2023-08-31T04:18:14;14.30;1.00
18160;DHT22;9205;52.032;4.314;2023-08-31T04:20:48;14.40;1.00
18160;DHT22;9205;52.032;4.314;2023-08-31T04:23:17;14.50;1.00
18160;DHT22;9205;52.032;4.314;2023-08-31T04:25:44;14.50;1.00
18160;DHT22;9205;52.032;4.314;2023-08-31T04:28:11;14.50;1.00
18160;DHT22;9205;52.032;4.314;2023-08-31T04:30:40;14.60;1.00
18160;DHT22;9205;52.032;4.314;2023-08-31T04:33:07;14.50;1.00
18160;DHT22;9205;52.032;4.314;2023-08-31T04:35:35;14.50;1.00
18160;DHT22;9205;52.032;4.314;2023-08-31T04:38:02;14.50;1.00
18160;DHT22;9205;52.032;4.314;2023-08-31T04:40:29;14.60;1.00
18160;DHT22;9205;52.032;4.314;2023-08-31T04:42:56;14.50;1.00
18160;DHT22;9205;52.032;4.314;2023-08-31T04:45:24;14.50;1.00
18160;DHT22;9205;52.032;4.314;2023-08-31T04:47:53;14.50;1.00
18160;DHT22;9205;52.032;4.314;2023-08-31T04:50:20;14.50;1.00
18160;DHT22;9205;52.032;4.314;2023-08-31T04:52:47;14.50;1.00
18160;DHT22;9205;52.032;4.314;2023-08-31T04:55:14;14.50;1.00
18160;DHT22;9205;52.032;4.314;2023-08-31T04:57:42;14.50;1.00
18160;DHT22;9205;52.032;4.314;2023-08-31T05:00:09;14.60;1.00
18160;DHT22;9205;52.032;4.314;2023-08-31T05:02:38;14.60;1.00
18160;DHT22;9205;52.032;4.314;2023-08-31T05:05:08;14.60;1.00
18160;DHT22;9205;52.032;4.314;2023-08-31T05:07:36;14.50;1.00
18160;DHT22;9205;52.032;4.314;2023-08-31T05:10:04;14.50;1.00
18160;DHT22;9205;52.032;4.314;2023-08-31T05:12:32;14.60;1.00
18160;DHT22;9205;52.032;4.314;2023-08-31T05:15:00;14.60;1.00
18160;DHT22;9205;52.032;4.314;2023-08-31T05:17:27;14.60;1.00
18160;DHT22;9205;52.032;4.314;2023-08-31T05:19:56;14.60;1.00
18160;DHT22;9205;52.032;4.314;2023-08-31T05:22:24;14.60;1.00
18160;DHT22;9205;52.032;4.314;2023-08-31T05:24:51;14.60;1.00
18160;DHT22;9205;52.032;4.314;2023-08-31T05:27:19;14.60;1.00
18160;DHT22;9205;52.032;4.314;2023-08-31T05:29:46;14.60;1.00
18160;DHT22;9205;52.032;4.314;2023-08-31T05:32:13;14.60;1.00
18160;DHT22;9205;52.032;4.314;2023-08-31T05:34:40;14.70;1.00
18160;DHT22;9205;52.032;4.314;2023-08-31T05:37:07;14.60;1.00
18160;DHT22;9205;52.032;4.314;2023-08-31T05:39:36;14.60;1.00
18160;DHT22;9205;52.032;4.314;2023-08-31T05:42:03;14.70;1.00
18160;DHT22;9205;52.032;4.314;2023-08-31T05:44:31;14.70;1.00
18160;DHT22;9205;52.032;4.314;2023-08-31T05:46:58;14.70;1.00
18160;DHT22;9205;52.032;4.314;2023-08-31T05:49:25;14.70;1.00
18160;DHT22;9205;52.032;4.314;2023-08-31T05:51:52;14.80;1.00
18160;DHT22;9205;52.032;4.314;2023-08-31T05:54:19;14.70;1.00
18160;DHT22;9205;52.032;4.314;2023-08-31T05:56:47;14.70;1.00
18160;DHT22;9205;52.032;4.314;2023-08-31T05:59:15;14.70;1.00
18160;DHT22;9205;52.032;4.314;2023-08-31T06:01:43;14.80;1.00
18160;DHT22;9205;52.032;4.314;2023-08-31T06:04:10;14.80;1.00
18160;DHT22;9205;52.032;4.314;2023-08-31T06:06:37;14.80;1.00
18160;DHT22;9205;52.032;4.314;2023-08-31T06:09:05;14.80;1.00
18160;DHT22;9205;52.032;4.314;2023-08-31T06:11:32;14.90;1.00
18160;DHT22;9205;52.032;4.314;2023-08-31T06:14:02;14.90;1.00
18160;DHT22;9205;52.032;4.314;2023-08-31T06:16:29;14.90;1.00
18160;DHT22;9205;52.032;4.314;2023-08-31T06:18:56;15.00;1.00
18160;DHT22;9205;52.032;4.314;2023-08-31T06:21:23;15.00;1.00
18160;DHT22;9205;52.032;4.314;2023-08-31T06:23:50;15.10;1.00
18160;DHT22;9205;52.032;4.314;2023-08-31T06:26:17;15.10;1.00
18160;DHT22;9205;52.032;4.314;2023-08-31T06:28:45;15.10;1.00
18160;DHT22;9205;52.032;4.314;2023-08-31T06:31:13;15.10;1.00
18160;DHT22;9205;52.032;4.314;2023-08-31T06:33:40;15.10;1.00
18160;DHT22;9205;52.032;4.314;2023-08-31T06:36:07;15.20;1.00
18160;DHT22;9205;52.032;4.314;2023-08-31T06:38:34;15.20;1.00
18160;DHT22;9205;52.032;4.314;2023-08-31T06:41:02;15.30;1.00
18160;DHT22;9205;52.032;4.314;2023-08-31T06:43:29;15.40;1.00
18160;DHT22;9205;52.032;4.314;2023-08-31T06:45:57;15.40;1.00
18160;DHT22;9205;52.032;4.314;2023-08-31T06:48:25;15.40;1.00
18160;DHT22;9205;52.032;4.314;2023-08-31T06:50:53;15.40;1.00
18160;DHT22;9205;52.032;4.314;2023-08-31T06:53:20;15.50;1.00
18160;DHT22;9205;52.032;4.314;2023-08-31T06:55:47;15.50;1.00
18160;DHT22;9205;52.032;4.314;2023-08-31T06:58:15;15.50;1.00
18160;DHT22;9205;52.032;4.314;2023-08-31T07:00:42;15.60;99.90
18160;DHT22;9205;52.032;4.314;2023-08-31T07:03:09;15.60;99.90
18160;DHT22;9205;52.032;4.314;2023-08-31T07:05:42;15.60;99.90
18160;DHT22;9205;52.032;4.314;2023-08-31T07:08:10;15.70;99.90
18160;DHT22;9205;52.032;4.314;2023-08-31T07:10:37;15.70;99.90
18160;DHT22;9205;52.032;4.314;2023-08-31T07:13:04;15.70;99.90
18160;DHT22;9205;52.032;4.314;2023-08-31T07:15:32;15.80;99.90
18160;DHT22;9205;52.032;4.314;2023-08-31T07:18:00;15.80;99.90
18160;DHT22;9205;52.032;4.314;2023-08-31T07:20:27;15.90;99.90
18160;DHT22;9205;52.032;4.314;2023-08-31T07:22:56;15.90;99.90
18160;DHT22;9205;52.032;4.314;2023-08-31T07:25:23;16.00;99.90
18160;DHT22;9205;52.032;4.314;2023-08-31T07:27:50;16.00;99.90
18160;DHT22;9205;52.032;4.314;2023-08-31T07:30:17;16.00;99.90
18160;DHT22;9205;52.032;4.314;2023-08-31T07:32:45;16.10;99.90
18160;DHT22;9205;52.032;4.314;2023-08-31T07:35:12;16.00;99.90
18160;DHT22;9205;52.032;4.314;2023-08-31T07:37:40;16.10;99.90
18160;DHT22;9205;52.032;4.314;2023-08-31T07:40:10;16.10;99.90
18160;DHT22;9205;52.032;4.314;2023-08-31T07:42:38;16.10;99.90
18160;DHT22;9205;52.032;4.314;2023-08-31T07:45:06;16.10;99.90
18160;DHT22;9205;52.032;4.314;2023-08-31T07:47:34;16.10;99.90
18160;DHT22;9205;52.032;4.314;2023-08-31T07:50:01;16.20;31.20
18160;DHT22;9205;52.032;4.314;2023-08-31T07:52:28;16.30;1.00
18160;DHT22;9205;52.032;4.314;2023-08-31T07:54:56;16.30;1.00
18160;DHT22;9205;52.032;4.314;2023-08-31T07:57:24;16.30;1.00
18160;DHT22;9205;52.032;4.314;2023-08-31T07:59:52;16.40;1.00
18160;DHT22;9205;52.032;4.314;2023-08-31T08:02:19;16.30;1.00
18160;DHT22;9205;52.032;4.314;2023-08-31T08:04:46;16.30;1.00
18160;DHT22;9205;52.032;4.314;2023-08-31T08:07:13;16.40;1.00
18160;DHT22;9205;52.032;4.314;2023-08-31T08:09:40;16.40;1.00
18160;DHT22;9205;52.032;4.314;2023-08-31T08:12:08;16.40;1.00
18160;DHT22;9205;52.032;4.314;2023-08-31T08:14:36;16.40;1.00
18160;DHT22;9205;52.032;4.314;2023-08-31T08:17:04;16.40;1.00
18160;DHT22;9205;52.032;4.314;2023-08-31T08:19:31;16.50;1.00
18160;DHT22;9205;52.032;4.314;2023-08-31T08:21:58;16.40;1.00
18160;DHT22;9205;52.032;4.314;2023-08-31T08:24:25;16.50;1.00
18160;DHT22;9205;52.032;4.314;2023-08-31T08:26:53;16.50;1.00
18160;DHT22;9205;52.032;4.314;2023-08-31T08:29:20;16.60;1.00
18160;DHT22;9205;52.032;4.314;2023-08-31T08:31:49;16.60;1.00
18160;DHT22;9205;52.032;4.314;2023-08-31T08:34:16;16.60;1.00
18160;DHT22;9205;52.032;4.314;2023-08-31T08:36:43;16.70;1.00
18160;DHT22;9205;52.032;4.314;2023-08-31T08:39:10;16.70;1.00
18160;DHT22;9205;52.032;4.314;2023-08-31T08:41:38;16.80;1.00
18160;DHT22;9205;52.032;4.314;2023-08-31T08:44:07;16.70;99.90
18160;DHT22;9205;52.032;4.314;2023-08-31T08:46:35;16.80;99.90
18160;DHT22;9205;52.032;4.314;2023-08-31T08:49:06;16.80;99.90
18160;DHT22;9205;52.032;4.314;2023-08-31T08:51:33;16.80;99.90
18160;DHT22;9205;52.032;4.314;2023-08-31T08:54:01;16.80;1.00
18160;DHT22;9205;52.032;4.314;2023-08-31T08:56:29;16.80;1.00
18160;DHT22;9205;52.032;4.314;2023-08-31T08:58:56;16.90;1.00
18160;DHT22;9205;52.032;4.314;2023-08-31T09:01:23;16.90;47.20
18160;DHT22;9205;52.032;4.314;2023-08-31T09:03:52;16.90;71.80
18160;DHT22;9205;52.032;4.314;2023-08-31T09:06:21;16.90;1.00
18160;DHT22;9205;52.032;4.314;2023-08-31T09:08:53;17.00;1.00
18160;DHT22;9205;52.032;4.314;2023-08-31T09:11:22;17.00;99.90
18160;DHT22;9205;52.032;4.314;2023-08-31T09:13:50;17.00;99.90
18160;DHT22;9205;52.032;4.314;2023-08-31T09:16:25;17.00;25.80
18160;DHT22;9205;52.032;4.314;2023-08-31T09:18:54;17.10;1.00
18160;DHT22;9205;52.032;4.314;2023-08-31T09:21:34;17.20;97.90
18160;DHT22;9205;52.032;4.314;2023-08-31T09:24:02;17.20;91.60
18160;DHT22;9205;52.032;4.314;2023-08-31T09:26:37;17.20;99.90
18160;DHT22;9205;52.032;4.314;2023-08-31T09:29:04;17.30;99.90
18160;DHT22;9205;52.032;4.314;2023-08-31T09:31:32;17.30;99.90
18160;DHT22;9205;52.032;4.314;2023-08-31T09:33:59;17.40;99.90
18160;DHT22;9205;52.032;4.314;2023-08-31T09:36:30;17.40;99.90
18160;DHT22;9205;52.032;4.314;2023-08-31T09:38:58;17.50;99.90
18160;DHT22;9205;52.032;4.314;2023-08-31T09:41:26;17.50;99.90
18160;DHT22;9205;52.032;4.314;2023-08-31T09:43:53;17.50;99.90
18160;DHT22;9205;52.032;4.314;2023-08-31T09:46:21;17.50;99.90
18160;DHT22;9205;52.032;4.314;2023-08-31T09:48:49;17.50;99.90
18160;DHT22;9205;52.032;4.314;2023-08-31T09:51:19;17.50;99.90
18160;DHT22;9205;52.032;4.314;2023-08-31T09:53:56;17.40;99.90
18160;DHT22;9205;52.032;4.314;2023-08-31T09:56:27;17.30;99.90
18160;DHT22;9205;52.032;4.314;2023-08-31T09:58:58;17.30;99.90
18160;DHT22;9205;52.032;4.314;2023-08-31T10:01:26;17.40;99.90
18160;DHT22;9205;52.032;4.314;2023-08-31T10:03:53;17.40;1.00
18160;DHT22;9205;52.032;4.314;2023-08-31T10:06:22;17.40;1.00
18160;DHT22;9205;52.032;4.314;2023-08-31T10:08:51;17.50;1.00
18160;DHT22;9205;52.032;4.314;2023-08-31T10:11:18;17.50;1.00
18160;DHT22;9205;52.032;4.314;2023-08-31T10:13:49;17.50;1.00
18160;DHT22;9205;52.032;4.314;2023-08-31T10:16:16;17.60;99.90
18160;DHT22;9205;52.032;4.314;2023-08-31T10:18:45;17.70;1.00
18160;DHT22;9205;52.032;4.314;2023-08-31T10:21:16;17.70;1.00
18160;DHT22;9205;52.032;4.314;2023-08-31T10:23:47;17.70;1.00
18160;DHT22;9205;52.032;4.314;2023-08-31T10:26:24;17.70;1.00
18160;DHT22;9205;52.032;4.314;2023-08-31T10:28:53;17.70;99.90
18160;DHT22;9205;52.032;4.314;2023-08-31T10:31:21;17.70;99.90
18160;DHT22;9205;52.032;4.314;2023-08-31T10:33:55;17.80;1.00
18160;DHT22;9205;52.032;4.314;2023-08-31T10:36:38;17.70;99.90
18160;DHT22;9205;52.032;4.314;2023-08-31T10:39:10;17.80;99.90
18160;DHT22;9205;52.032;4.314;2023-08-31T10:41:40;17.90;99.90
18160;DHT22;9205;52.032;4.314;2023-08-31T10:44:18;17.90;65.50
18160;DHT22;9205;52.032;4.314;2023-08-31T10:46:46;17.90;1.00
18160;DHT22;9205;52.032;4.314;2023-08-31T10:49:16;18.00;1.00
18160;DHT22;9205;52.032;4.314;2023-08-31T10:51:46;18.00;1.00
18160;DHT22;9205;52.032;4.314;2023-08-31T10:54:21;18.10;1.00
18160;DHT22;9205;52.032;4.314;2023-08-31T10:57:00;18.10;1.00
18160;DHT22;9205;52.032;4.314;2023-08-31T10:59:45;18.00;1.00
18160;DHT22;9205;52.032;4.314;2023-08-31T11:02:30;18.20;1.00
18160;DHT22;9205;52.032;4.314;2023-08-31T11:05:02;18.30;1.00
18160;DHT22;9205;52.032;4.314;2023-08-31T11:07:34;18.40;1.00
18160;DHT22;9205;52.032;4.314;2023-08-31T11:10:12;18.50;7.50
18160;DHT22;9205;52.032;4.314;2023-08-31T11:12:43;18.60;1.00
18160;DHT22;9205;52.032;4.314;2023-08-31T11:15:12;18.70;1.00
18160;DHT22;9205;52.032;4.314;2023-08-31T11:17:41;18.60;1.00
18160;DHT22;9205;52.032;4.314;2023-08-31T11:20:12;18.30;1.00
18160;DHT22;9205;52.032;4.314;2023-08-31T11:22:44;18.30;1.00
18160;DHT22;9205;52.032;4.314;2023-08-31T11:25:13;18.40;1.00
18160;DHT22;9205;52.032;4.314;2023-08-31T11:27:42;18.60;1.00
18160;DHT22;9205;52.032;4.314;2023-08-31T11:30:19;19.00;1.00
18160;DHT22;9205;52.032;4.314;2023-08-31T11:32:47;18.90;1.00
18160;DHT22;9205;52.032;4.314;2023-08-31T11:35:16;19.00;1.00
18160;DHT22;9205;52.032;4.314;2023-08-31T11:37:44;19.20;1.00
18160;DHT22;9205;52.032;4.314;2023-08-31T11:40:13;19.40;1.00
18160;DHT22;9205;52.032;4.314;2023-08-31T11:42:42;19.30;99.90
18160;DHT22;9205;52.032;4.314;2023-08-31T11:45:10;19.50;99.90
18160;DHT22;9205;52.032;4.314;2023-08-31T11:47:40;19.50;99.90
18160;DHT22;9205;52.032;4.314;2023-08-31T11:50:11;19.40;1.00
18160;DHT22;9205;52.032;4.314;2023-08-31T11:52:40;19.40;1.00
18160;DHT22;9205;52.032;4.314;2023-08-31T11:55:10;19.50;1.00
18160;DHT22;9205;52.032;4.314;2023-08-31T11:57:38;19.60;1.00
18160;DHT22;9205;52.032;4.314;2023-08-31T12:00:07;19.80;90.00
18160;DHT22;9205;52.032;4.314;2023-08-31T12:02:36;20.00;1.00
18160;DHT22;9205;52.032;4.314;2023-08-31T12:05:04;19.90;1.00
18160;DHT22;9205;52.032;4.314;2023-08-31T12:07:32;19.90;1.00
18160;DHT22;9205;52.032;4.314;2023-08-31T12:10:02;20.10;1.00
18160;DHT22;9205;52.032;4.314;2023-08-31T12:12:30;19.90;1.00
18160;DHT22;9205;52.032;4.314;2023-08-31T12:14:58;19.70;1.00
18160;DHT22;9205;52.032;4.314;2023-08-31T12:17:28;19.70;1.00
18160;DHT22;9205;52.032;4.314;2023-08-31T12:20:02;19.60;1.00
18160;DHT22;9205;52.032;4.314;2023-08-31T12:22:32;19.50;1.00
18160;DHT22;9205;52.032;4.314;2023-08-31T12:24:59;19.70;1.00
18160;DHT22;9205;52.032;4.314;2023-08-31T12:27:26;19.80;1.00
18160;DHT22;9205;52.032;4.314;2023-08-31T12:29:55;20.00;1.00
18160;DHT22;9205;52.032;4.314;2023-08-31T12:32:23;20.30;99.90
18160;DHT22;9205;52.032;4.314;2023-08-31T12:34:51;20.10;1.00
18160;DHT22;9205;52.032;4.314;2023-08-31T12:37:18;20.20;1.00
18160;DHT22;9205;52.032;4.314;2023-08-31T12:39:45;20.20;1.00
18160;DHT22;9205;52.032;4.314;2023-08-31T12:42:13;20.20;1.00
18160;DHT22;9205;52.032;4.314;2023-08-31T12:44:40;20.30;1.00
18160;DHT22;9205;52.032;4.314;2023-08-31T12:47:07;20.40;1.00
18160;DHT22;9205;52.032;4.314;2023-08-31T12:49:34;20.30;1.00
18160;DHT22;9205;52.032;4.314;2023-08-31T12:52:03;20.30;1.00
18160;DHT22;9205;52.032;4.314;2023-08-31T12:54:31;20.20;1.00
18160;DHT22;9205;52.032;4.314;2023-08-31T12:56:58;20.30;1.00
18160;DHT22;9205;52.032;4.314;2023-08-31T12:59:25;20.50;1.00
18160;DHT22;9205;52.032;4.314;2023-08-31T13:01:52;20.50;1.00
18160;DHT22;9205;52.032;4.314;2023-08-31T13:04:20;20.40;1.00
18160;DHT22;9205;52.032;4.314;2023-08-31T13:06:47;20.50;1.00
18160;DHT22;9205;52.032;4.314;2023-08-31T13:09:15;20.50;1.00
18160;DHT22;9205;52.032;4.314;2023-08-31T13:11:43;20.70;1.00
18160;DHT22;9205;52.032;4.314;2023-08-31T13:14:10;20.60;1.00
18160;DHT22;9205;52.032;4.314;2023-08-31T13:16:37;20.40;99.90
18160;DHT22;9205;52.032;4.314;2023-08-31T13:19:06;20.50;99.90
18160;DHT22;9205;52.032;4.314;2023-08-31T13:21:33;20.50;99.90
18160;DHT22;9205;52.032;4.314;2023-08-31T13:24:00;20.60;1.00
18160;DHT22;9205;52.032;4.314;2023-08-31T13:26:28;20.70;1.00
18160;DHT22;9205;52.032;4.314;2023-08-31T13:28:56;20.60;99.90
18160;DHT22;9205;52.032;4.314;2023-08-31T13:31:23;20.50;99.90
18160;DHT22;9205;52.032;4.314;2023-08-31T13:33:50;20.60;1.00
18160;DHT22;9205;52.032;4.314;2023-08-31T13:36:17;20.80;1.00
18160;DHT22;9205;52.032;4.314;2023-08-31T13:38:45;20.90;99.90
18160;DHT22;9205;52.032;4.314;2023-08-31T13:41:12;20.90;99.90
18160;DHT22;9205;52.032;4.314;2023-08-31T13:43:40;21.00;99.90
18160;DHT22;9205;52.032;4.314;2023-08-31T13:46:08;21.00;99.90
18160;DHT22;9205;52.032;4.314;2023-08-31T13:48:35;21.00;99.90
18160;DHT22;9205;52.032;4.314;2023-08-31T13:51:03;21.10;99.90
18160;DHT22;9205;52.032;4.314;2023-08-31T13:53:30;21.00;99.90
18160;DHT22;9205;52.032;4.314;2023-08-31T13:55:57;20.70;1.00
18160;DHT22;9205;52.032;4.314;2023-08-31T13:58:24;20.60;1.00
18160;DHT22;9205;52.032;4.314;2023-08-31T14:00:53;20.90;99.90
18160;DHT22;9205;52.032;4.314;2023-08-31T14:03:20;20.80;1.00
18160;DHT22;9205;52.032;4.314;2023-08-31T14:05:48;20.60;1.00
18160;DHT22;9205;52.032;4.314;2023-08-31T14:08:15;20.60;1.00
18160;DHT22;9205;52.032;4.314;2023-08-31T14:10:43;20.60;1.00
18160;DHT22;9205;52.032;4.314;2023-08-31T14:13:10;20.80;99.90
18160;DHT22;9205;52.032;4.314;2023-08-31T14:15:37;20.90;99.90
18160;DHT22;9205;52.032;4.314;2023-08-31T14:18:11;20.80;99.90
18160;DHT22;9205;52.032;4.314;2023-08-31T14:20:38;20.90;60.80
18160;DHT22;9205;52.032;4.314;2023-08-31T14:23:06;20.80;1.00
18160;DHT22;9205;52.032;4.314;2023-08-31T14:25:34;20.90;15.50
18160;DHT22;9205;52.032;4.314;2023-08-31T14:28:03;20.70;1.00
18160;DHT22;9205;52.032;4.314;2023-08-31T14:30:31;20.60;1.00
18160;DHT22;9205;52.032;4.314;2023-08-31T14:32:58;20.80;1.00
18160;DHT22;9205;52.032;4.314;2023-08-31T14:35:27;20.50;1.00
18160;DHT22;9205;52.032;4.314;2023-08-31T14:37:54;20.30;1.00
18160;DHT22;9205;52.032;4.314;2023-08-31T14:40:21;20.20;1.00
18160;DHT22;9205;52.032;4.314;2023-08-31T14:42:49;20.10;1.00
18160;DHT22;9205;52.032;4.314;2023-08-31T14:45:16;20.10;94.90
18160;DHT22;9205;52.032;4.314;2023-08-31T14:47:43;20.00;99.90
18160;DHT22;9205;52.032;4.314;2023-08-31T14:50:10;19.90;99.90
18160;DHT22;9205;52.032;4.314;2023-08-31T14:52:39;19.80;99.90
18160;DHT22;9205;52.032;4.314;2023-08-31T14:55:06;19.70;99.90
18160;DHT22;9205;52.032;4.314;2023-08-31T14:57:34;19.60;99.90
18160;DHT22;9205;52.032;4.314;2023-08-31T15:00:02;19.50;99.90
18160;DHT22;9205;52.032;4.314;2023-08-31T15:02:32;19.50;99.90
18160;DHT22;9205;52.032;4.314;2023-08-31T15:05:00;19.60;99.90
18160;DHT22;9205;52.032;4.314;2023-08-31T15:07:27;19.60;99.90
18160;DHT22;9205;52.032;4.314;2023-08-31T15:09:55;19.50;99.90
18160;DHT22;9205;52.032;4.314;2023-08-31T15:12:22;19.40;99.90
18160;DHT22;9205;52.032;4.314;2023-08-31T15:14:50;19.30;99.90
18160;DHT22;9205;52.032;4.314;2023-08-31T15:17:17;19.30;99.90
18160;DHT22;9205;52.032;4.314;2023-08-31T15:19:44;19.20;99.90
18160;DHT22;9205;52.032;4.314;2023-08-31T15:22:11;19.40;1.00
18160;DHT22;9205;52.032;4.314;2023-08-31T15:24:38;19.30;99.90
18160;DHT22;9205;52.032;4.314;2023-08-31T15:27:09;19.20;99.90
18160;DHT22;9205;52.032;4.314;2023-08-31T15:29:36;19.20;99.90
18160;DHT22;9205;52.032;4.314;2023-08-31T15:32:04;19.20;1.00
18160;DHT22;9205;52.032;4.314;2023-08-31T15:34:33;19.20;1.00
18160;DHT22;9205;52.032;4.314;2023-08-31T15:37:00;19.30;1.00
18160;DHT22;9205;52.032;4.314;2023-08-31T15:39:28;19.30;1.00
18160;DHT22;9205;52.032;4.314;2023-08-31T15:41:56;19.20;1.00
18160;DHT22;9205;52.032;4.314;2023-08-31T15:44:24;19.20;1.00
18160;DHT22;9205;52.032;4.314;2023-08-31T15:46:51;19.20;1.00
18160;DHT22;9205;52.032;4.314;2023-08-31T15:49:19;19.10;1.00
18160;DHT22;9205;52.032;4.314;2023-08-31T15:51:46;19.00;1.00
18160;DHT22;9205;52.032;4.314;2023-08-31T15:54:13;19.10;1.00
18160;DHT22;9205;52.032;4.314;2023-08-31T15:56:40;19.10;1.00
18160;DHT22;9205;52.032;4.314;2023-08-31T15:59:07;19.10;1.00
18160;DHT22;9205;52.032;4.314;2023-08-31T16:01:36;19.20;1.00
18160;DHT22;9205;52.032;4.314;2023-08-31T16:04:04;19.20;1.00